Time;durP1;ratioP1;P1;durP2;ratioP2;P2;SDS_P1;SDS_P2;PMS_P1;PMS_P2;Temp;Humidity;BMP_temperature;BMP_pressure;BME280_temperature;BME280_humidity;BME280_pressure;Samples;Min_cycle;Max_cycle;Signal;HPM_P1;HPM_P2
2022/02/05 00:02:05;;;;;;;8.90;2.30;;;;;;;3.59;93.27;100859.13;4992627;28;20270;-74
2022/02/05 00:04:33;;;;;;;17.40;2.60;;;;;;;3.57;93.39;100868.31;4992625;28;20636;-74
2022/02/05 00:06:59;;;;;;;8.07;2.60;;;;;;;3.52;93.98;100866.34;4992219;28;20654;-74
2022/02/05 00:09:44;;;;;;;11.77;2.67;;;;;;;3.46;93.80;100859.34;4992109;28;20196;-73
2022/02/05 00:12:27;;;;;;;8.17;2.30;;;;;;;3.44;93.69;100860.94;4992390;28;20231;-74
2022/02/05 00:15:23;;;;;;;10.37;2.70;;;;;;;3.44;93.40;100873.59;4991110;28;20233;-74
2022/02/05 00:39:58;;;;;;;5.30;2.77;;;;;;;3.50;92.87;100888.19;4991747;28;20239;-74
2022/02/05 00:42:39;;;;;;;6.00;2.50;;;;;;;3.51;92.74;100900.06;4991902;28;20211;-74
2022/02/05 00:45:06;;;;;;;6.37;2.23;;;;;;;3.54;92.20;100906.13;4991584;28;20188;-74
2022/02/05 00:47:32;;;;;;;6.63;2.57;;;;;;;3.57;92.42;100911.34;4991436;28;20199;-74
2022/02/05 00:50:00;;;;;;;5.80;2.10;;;;;;;3.58;92.92;100907.16;4990358;28;20215;-74
2022/02/05 00:52:27;;;;;;;7.83;2.33;;;;;;;3.58;92.31;100905.47;4992035;28;20216;-74
2022/02/05 00:55:01;;;;;;;8.27;2.50;;;;;;;3.53;92.08;100909.44;5006939;28;20709;-73
2022/02/05 00:59:52;;;;;;;7.43;2.03;;;;;;;3.41;92.77;100906.31;4991309;28;20211;-74
2022/02/05 01:02:17;;;;;;;8.07;2.30;;;;;;;3.35;92.88;100912.78;4991571;28;20191;-74
2022/02/05 01:04:42;;;;;;;5.90;2.20;;;;;;;3.37;92.94;100919.66;4990716;28;20188;-74
2022/02/05 01:07:08;;;;;;;8.77;2.57;;;;;;;3.39;92.90;100917.16;4991149;28;20188;-74
2022/02/05 01:09:33;;;;;;;5.20;2.20;;;;;;;3.43;93.24;100925.00;4991219;28;20199;-74
2022/02/05 01:12:01;;;;;;;5.70;2.00;;;;;;;3.47;93.12;100936.13;4990008;28;20200;-74
2022/02/05 01:14:30;;;;;;;9.40;2.57;;;;;;;3.51;93.41;100935.47;4989966;28;20191;-74
2022/02/05 01:17:01;;;;;;;7.37;2.03;;;;;;;3.58;92.91;100937.53;4990876;28;20191;-74
2022/02/05 01:22:13;;;;;;;5.73;1.80;;;;;;;3.65;92.17;100948.03;4991143;28;20187;-74
2022/02/05 01:24:39;;;;;;;5.70;1.80;;;;;;;3.68;91.88;100947.28;4991033;28;20192;-73
2022/02/05 01:27:16;;;;;;;5.87;2.03;;;;;;;3.67;92.05;100951.47;4989261;28;20665;-74
2022/02/05 01:32:28;;;;;;;9.00;1.70;;;;;;;3.75;92.04;100956.91;4990995;28;20203;-73
2022/02/05 01:35:07;;;;;;;5.70;1.97;;;;;;;3.75;92.51;100961.97;4990799;28;20200;-74
2022/02/05 01:51:09;;;;;;;3.87;1.40;;;;;;;3.65;92.02;100970.81;4990606;28;20216;-74
2022/02/05 01:54:13;;;;;;;6.40;1.47;;;;;;;3.59;92.16;100973.00;4990573;28;20192;-74
2022/02/05 01:57:09;;;;;;;2.77;1.27;;;;;;;3.59;92.40;100979.75;4988269;28;20246;-74
2022/02/05 02:04:46;;;;;;;4.27;1.57;;;;;;;3.61;92.44;100985.75;4989084;28;20728;-74
2022/02/05 02:05:04;;;;;;;6.17;1.40;;;;;;;3.59;92.42;100975.53;4990635;28;20673;-74
2022/02/05 02:13:11;;;;;;;6.90;1.50;;;;;;;3.70;92.84;100981.13;4990350;28;20555;-74
2022/02/05 02:15:43;;;;;;;4.83;2.20;;;;;;;3.69;93.10;100979.41;4989733;28;20254;-74
2022/02/05 02:18:32;;;;;;;7.00;2.70;;;;;;;3.71;92.95;100987.94;4988255;28;20175;-74
2022/02/05 02:26:25;;;;;;;7.90;4.37;;;;;;;3.74;92.33;100980.50;4989974;28;20278;-74
2022/02/05 02:28:59;;;;;;;8.47;5.53;;;;;;;3.78;91.56;100989.97;4988509;28;20191;-74
2022/02/05 02:31:29;;;;;;;8.10;5.10;;;;;;;3.82;91.45;100995.25;4988669;28;20222;-73
2022/02/05 02:33:58;;;;;;;10.27;5.20;;;;;;;3.82;91.09;101000.31;4988791;28;20211;-74
2022/02/05 02:39:15;;;;;;;9.27;5.57;;;;;;;3.78;91.95;100998.44;4989491;28;20286;-74
2022/02/05 02:41:47;;;;;;;12.00;5.07;;;;;;;3.79;92.02;101005.25;4988340;28;20628;-74
2022/02/05 02:44:12;;;;;;;11.23;4.87;;;;;;;3.81;92.38;101008.72;4990052;28;20192;-74
2022/02/05 02:46:38;;;;;;;7.57;4.43;;;;;;;3.81;92.65;101003.66;4989977;28;20624;-74
2022/02/05 02:49:05;;;;;;;11.47;5.20;;;;;;;3.78;92.31;101003.50;4989908;28;20195;-74
2022/02/05 02:57:29;;;;;;;6.10;3.63;;;;;;;3.48;92.30;101014.66;4988744;28;20678;-74
2022/02/05 03:00:03;;;;;;;8.87;3.90;;;;;;;3.44;91.91;101010.22;4988979;28;20270;-74
2022/02/05 03:02:29;;;;;;;5.40;4.20;;;;;;;3.42;92.79;101021.94;4972535;28;20188;-74
2022/02/05 03:04:55;;;;;;;10.47;4.67;;;;;;;3.39;92.34;101020.91;4989890;28;20275;-73
2022/02/05 03:07:26;;;;;;;10.73;5.10;;;;;;;3.38;92.79;101020.06;4989643;28;20195;-74
2022/02/05 03:09:52;;;;;;;9.73;5.10;;;;;;;3.41;93.84;101016.81;4989127;28;20212;-74
2022/02/05 03:12:19;;;;;;;10.47;5.53;;;;;;;3.44;93.49;101029.59;4989843;28;20185;-74
2022/02/05 03:14:45;;;;;;;11.57;6.30;;;;;;;3.55;93.63;101039.47;4989968;28;20329;-74
2022/02/05 03:17:18;;;;;;;17.97;7.20;;;;;;;3.64;93.33;101044.97;4990010;28;20196;-74
2022/02/05 03:19:46;;;;;;;14.57;6.43;;;;;;;3.71;93.33;101064.75;4988381;28;20208;-74
2022/02/05 03:22:13;;;;;;;11.17;6.53;;;;;;;3.72;93.66;101080.84;4990155;28;20191;-74
2022/02/05 03:24:38;;;;;;;10.83;5.20;;;;;;;3.61;93.90;101080.28;4989699;28;20192;-74
2022/02/05 03:27:04;;;;;;;12.77;4.60;;;;;;;3.54;94.14;101067.25;4989324;28;20684;-74
2022/02/05 03:29:30;;;;;;;8.63;5.13;;;;;;;3.50;94.44;101067.88;4991179;28;20223;-74
2022/02/05 03:31:55;;;;;;;9.60;4.40;;;;;;;3.47;93.98;101055.94;4991992;28;20228;-74
2022/02/05 03:34:20;;;;;;;9.20;3.10;;;;;;;3.41;93.79;101045.50;4993363;28;20194;-74
2022/02/05 03:36:46;;;;;;;7.37;2.43;;;;;;;3.38;93.00;101052.94;4993206;28;20770;-73
2022/02/05 03:39:11;;;;;;;6.17;2.07;;;;;;;3.38;92.73;101042.81;4989709;28;20262;-74
2022/02/05 03:41:36;;;;;;;5.10;1.67;;;;;;;3.30;92.46;101060.91;4992719;28;20682;-74
2022/02/05 03:44:02;;;;;;;4.17;1.87;;;;;;;3.27;92.71;101068.38;4992968;28;20693;-74
2022/02/05 03:46:29;;;;;;;4.73;2.00;;;;;;;3.22;92.88;101072.34;4992931;28;20192;-74
2022/02/05 03:48:54;;;;;;;2.93;1.30;;;;;;;3.15;92.37;101077.84;4991300;28;20192;-73
2022/02/05 03:51:19;;;;;;;5.07;1.33;;;;;;;3.15;93.09;101101.50;4992635;28;20278;-74
2022/02/05 03:53:45;;;;;;;1.87;0.90;;;;;;;3.18;92.65;101095.72;4999850;28;20214;-73
2022/02/05 03:56:10;;;;;;;4.93;1.10;;;;;;;3.16;92.87;101112.47;4991476;28;20199;-74
2022/02/05 03:58:35;;;;;;;1.67;0.80;;;;;;;3.18;92.71;101129.44;4993709;28;20200;-74
2022/02/05 04:01:01;;;;;;;2.33;1.00;;;;;;;3.11;92.76;101155.22;4993822;28;20222;-74
2022/02/05 04:03:26;;;;;;;1.90;1.10;;;;;;;2.96;92.24;101154.41;4996935;28;20202;-73
2022/02/05 04:05:51;;;;;;;5.03;1.13;;;;;;;2.95;92.56;101156.84;5003624;28;20204;-74
2022/02/05 04:08:17;;;;;;;2.33;0.60;;;;;;;2.93;92.19;101169.41;5007215;28;20203;-74
2022/02/05 04:11:03;;;;;;;3.00;1.00;;;;;;;2.92;92.45;101167.69;4991223;28;20697;-74
2022/02/05 04:16:24;;;;;;;2.83;0.97;;;;;;;2.82;93.41;101199.94;4992438;28;20183;-74
2022/02/05 04:18:54;;;;;;;5.03;1.00;;;;;;;2.74;92.57;101178.41;5007151;28;20187;-74
2022/02/05 04:21:21;;;;;;;3.37;0.90;;;;;;;2.63;92.35;101162.69;4992310;28;20835;-74
2022/02/05 04:23:48;;;;;;;3.30;0.73;;;;;;;2.45;93.36;101149.03;4992203;28;20245;-74
2022/02/05 04:26:15;;;;;;;1.90;0.70;;;;;;;2.37;93.14;101134.19;4992251;28;20195;-74
2022/02/05 04:28:41;;;;;;;2.30;0.90;;;;;;;2.24;93.47;101126.72;5023584;28;20191;-74
2022/02/05 04:31:06;;;;;;;0.77;0.60;;;;;;;2.12;93.83;101143.72;4991950;28;20215;-74
2022/02/05 04:33:32;;;;;;;2.03;0.63;;;;;;;2.12;94.82;101152.13;4990852;28;20196;-74
2022/02/05 04:35:58;;;;;;;2.37;0.60;;;;;;;2.10;95.44;101152.84;4990918;28;20230;-74
2022/02/05 04:38:24;;;;;;;1.33;0.77;;;;;;;2.08;95.17;101170.44;4990675;28;20239;-74
2022/02/05 04:43:38;;;;;;;3.13;0.53;;;;;;;2.03;95.58;101181.94;4992019;28;20249;-74
2022/02/05 04:48:50;;;;;;;2.13;0.87;;;;;;;1.93;95.57;101183.84;5006665;28;20175;-74
2022/02/05 04:59:44;;;;;;;3.83;1.00;;;;;;;1.98;96.18;101178.25;4991470;28;20204;-74
2022/02/05 05:20:23;;;;;;;2.90;1.10;;;;;;;1.99;97.10;101210.31;4990903;28;20288;-74
2022/02/05 05:22:49;;;;;;;5.97;1.30;;;;;;;1.98;97.07;101195.91;5022605;28;20627;-74
2022/02/05 05:25:15;;;;;;;2.53;1.17;;;;;;;2.01;97.09;101198.63;4991161;28;20188;-73
2022/02/05 05:27:40;;;;;;;3.30;0.93;;;;;;;2.04;97.27;101201.34;4991094;28;20200;-74
2022/02/05 05:30:06;;;;;;;5.27;1.60;;;;;;;2.03;96.15;101207.19;4990701;28;20281;-73
2022/02/05 05:32:31;;;;;;;5.57;1.40;;;;;;;2.06;96.37;101209.03;4990870;28;20199;-74
2022/02/05 05:34:57;;;;;;;8.07;1.30;;;;;;;2.08;96.20;101222.59;4989274;28;20187;-74
2022/02/05 05:37:22;;;;;;;5.37;1.30;;;;;;;2.00;96.61;101224.66;4982214;28;20253;-74
2022/02/05 05:39:49;;;;;;;3.77;1.23;;;;;;;1.98;97.17;101230.41;4969974;28;20215;-74
2022/02/05 05:42:21;;;;;;;5.97;1.70;;;;;;;1.94;96.34;101231.00;4971304;28;20191;-74
2022/02/05 05:45:18;;;;;;;4.70;1.30;;;;;;;1.99;97.45;101234.66;4971490;28;20254;-74
2022/02/05 05:53:09;;;;;;;3.07;1.33;;;;;;;1.89;97.74;101248.38;5005949;28;20188;-74
2022/02/05 05:55:35;;;;;;;4.83;1.30;;;;;;;1.93;97.37;101257.88;5005701;28;20186;-74
2022/02/05 05:58:02;;;;;;;8.77;1.40;;;;;;;1.93;97.74;101249.47;5005927;28;20574;-74
2022/02/05 06:00:27;;;;;;;6.17;1.30;;;;;;;1.94;97.17;101266.34;4989301;28;20242;-74
2022/02/05 06:02:53;;;;;;;6.33;1.20;;;;;;;1.92;97.13;101262.88;4989332;28;20223;-74
2022/02/05 06:05:18;;;;;;;4.50;1.13;;;;;;;1.91;97.03;101267.03;4990319;28;20196;-75
2022/02/05 06:07:44;;;;;;;6.77;1.00;;;;;;;1.97;96.64;101282.53;5005250;28;20210;-74
2022/02/05 06:10:09;;;;;;;4.03;1.20;;;;;;;1.91;97.39;101277.13;5021675;28;20222;-74
2022/02/05 06:12:34;;;;;;;5.40;1.30;;;;;;;1.95;96.13;101286.66;4990445;28;20275;-74
2022/02/05 06:15:03;;;;;;;3.93;0.90;;;;;;;1.92;96.49;101278.88;4990335;28;20993;-74
2022/02/05 06:17:29;;;;;;;6.87;1.10;;;;;;;1.94;96.80;101279.84;5005370;28;20233;-74
2022/02/05 06:19:55;;;;;;;7.63;1.50;;;;;;;2.01;96.32;101279.44;4989749;28;20239;-74
2022/02/05 06:22:20;;;;;;;6.17;1.17;;;;;;;2.06;96.04;101293.19;5005388;28;20196;-74
2022/02/05 06:24:46;;;;;;;7.83;1.50;;;;;;;2.10;96.54;101295.13;4990280;28;20199;-74
2022/02/05 06:27:11;;;;;;;3.90;1.00;;;;;;;2.09;96.74;101295.91;4990324;28;20188;-73
2022/02/05 06:29:36;;;;;;;7.03;1.47;;;;;;;2.15;95.89;101308.03;4989928;28;20306;-73
2022/02/05 06:32:02;;;;;;;5.07;1.07;;;;;;;2.22;95.97;101300.03;4990165;28;20246;-74
2022/02/05 06:34:28;;;;;;;7.40;1.47;;;;;;;2.23;96.62;101314.41;5004617;28;20246;-74
2022/02/05 06:36:54;;;;;;;4.70;0.93;;;;;;;2.28;96.13;101315.53;4983930;28;20568;-74
2022/02/05 06:39:20;;;;;;;3.97;1.17;;;;;;;2.30;96.36;101312.31;4970584;28;20192;-74
2022/02/05 06:41:46;;;;;;;6.93;1.50;;;;;;;2.32;96.88;101325.06;4987038;28;20207;-74
2022/02/05 06:44:12;;;;;;;4.13;1.20;;;;;;;2.34;96.64;101329.41;4990203;28;20548;-74
2022/02/05 06:46:38;;;;;;;5.10;1.93;;;;;;;2.35;96.35;101333.69;4990366;28;20192;-74
2022/02/05 06:49:03;;;;;;;6.20;1.23;;;;;;;2.32;96.71;101332.63;5005347;28;20184;-74
2022/02/05 06:51:29;;;;;;;7.10;1.13;;;;;;;2.27;96.19;101336.53;5005175;28;20683;-74
2022/02/05 06:53:54;;;;;;;5.60;1.00;;;;;;;2.25;96.85;101336.44;5005191;28;20247;-74
2022/02/05 06:56:20;;;;;;;6.43;1.67;;;;;;;2.25;96.33;101340.63;4990201;28;20188;-74
2022/02/05 06:58:46;;;;;;;6.33;1.30;;;;;;;2.27;96.69;101339.06;5004695;28;20250;-74
2022/02/05 07:01:11;;;;;;;7.97;1.50;;;;;;;2.24;95.75;101352.38;4990007;28;20207;-74
2022/02/05 07:03:36;;;;;;;4.30;1.30;;;;;;;2.24;96.72;101349.84;4993290;28;20194;-74
2022/02/05 07:06:02;;;;;;;9.00;1.80;;;;;;;2.24;96.50;101338.88;4993979;28;20219;-74
2022/02/05 07:08:27;;;;;;;7.27;1.93;;;;;;;2.23;95.75;101345.59;4993530;28;20230;-74
2022/02/05 07:10:52;;;;;;;6.37;1.53;;;;;;;2.24;95.78;101348.97;4993565;28;20239;-74
2022/02/05 07:13:20;;;;;;;4.87;1.17;;;;;;;2.27;96.09;101349.16;4996905;28;20724;-74
2022/02/05 07:16:00;;;;;;;7.80;1.30;;;;;;;2.27;95.89;101352.56;5008941;28;20203;-73
2022/02/05 07:23:43;;;;;;;7.87;1.47;;;;;;;2.30;95.05;101362.00;5012874;28;20550;-73
2022/02/05 07:31:40;;;;;;;4.47;1.30;;;;;;;2.37;95.11;101374.19;5003921;28;20223;-73
2022/02/05 07:34:06;;;;;;;6.77;1.60;;;;;;;2.41;95.16;101369.44;4994484;28;20207;-73
2022/02/05 07:36:31;;;;;;;6.83;1.40;;;;;;;2.67;94.96;101381.09;4994718;28;20191;-74
2022/02/05 07:38:56;;;;;;;3.97;1.10;;;;;;;2.77;94.27;101389.31;4990403;28;20728;-73
2022/02/05 07:41:22;;;;;;;8.87;1.43;;;;;;;2.69;95.06;101399.72;4989764;28;20752;-74
2022/02/05 07:43:47;;;;;;;9.20;2.33;;;;;;;2.64;95.19;101379.25;4994426;28;20219;-74
2022/02/05 07:46:13;;;;;;;5.10;1.87;;;;;;;2.67;95.27;101391.19;4991689;28;20238;-73
2022/02/05 07:48:39;;;;;;;8.83;2.00;;;;;;;2.72;95.67;101389.81;4995936;28;20191;-73
2022/02/05 07:51:05;;;;;;;9.87;1.83;;;;;;;2.72;95.20;101404.97;4996604;28;20215;-73
2022/02/05 07:53:32;;;;;;;11.27;2.30;;;;;;;2.68;95.57;101401.41;4983428;28;20207;-74
2022/02/05 07:55:58;;;;;;;11.10;1.83;;;;;;;2.71;95.59;101403.22;4973225;28;20247;-74
2022/02/05 07:58:23;;;;;;;9.40;2.03;;;;;;;2.71;95.34;101401.56;4973044;28;20663;-73
2022/02/05 08:00:48;;;;;;;9.67;1.93;;;;;;;2.72;95.04;101405.81;4971909;28;20215;-73
2022/02/05 08:03:15;;;;;;;8.20;2.20;;;;;;;2.81;94.40;101406.38;4973278;28;20185;-73
2022/02/05 08:05:40;;;;;;;9.07;2.37;;;;;;;2.96;93.82;101403.88;4980645;28;20620;-73
2022/02/05 08:08:12;;;;;;;10.13;2.00;;;;;;;3.06;93.37;101411.19;4992124;28;20184;-73
2022/02/05 08:10:46;;;;;;;13.93;2.23;;;;;;;3.11;93.87;101418.28;4995414;28;20215;-73
2022/02/05 08:13:12;;;;;;;12.90;1.70;;;;;;;3.17;93.56;101428.75;4975193;28;20238;-72
2022/02/05 08:15:37;;;;;;;9.20;2.23;;;;;;;3.25;92.21;101425.00;4992186;28;20740;-74
2022/02/05 08:18:03;;;;;;;7.37;1.70;;;;;;;3.34;92.43;101432.25;4990575;28;20598;-73
2022/02/05 08:20:28;;;;;;;11.13;2.50;;;;;;;3.37;91.71;101445.09;4991112;28;20682;-74
2022/02/05 08:22:53;;;;;;;6.40;1.83;;;;;;;3.41;92.24;101442.78;4992101;28;20227;-73
2022/02/05 08:25:19;;;;;;;8.70;2.43;;;;;;;3.46;92.08;101441.44;4992048;28;20191;-73
2022/02/05 08:27:44;;;;;;;12.10;2.53;;;;;;;3.53;91.93;101440.97;4991778;28;20188;-73
2022/02/05 08:30:12;;;;;;;13.83;2.50;;;;;;;3.63;91.36;101455.88;4990323;28;20681;-73
2022/02/05 08:32:39;;;;;;;9.60;2.57;;;;;;;3.94;91.04;101461.00;4990756;28;20723;-73
2022/02/05 08:35:06;;;;;;;12.80;3.17;;;;;;;4.07;90.09;101453.28;4990249;28;20184;-74
2022/02/05 08:37:38;;;;;;;14.83;2.70;;;;;;;4.16;89.97;101452.16;4992006;28;20707;-73
2022/02/05 08:40:04;;;;;;;14.40;3.00;;;;;;;4.22;89.74;101451.56;4991577;28;20211;-73
2022/02/05 08:42:30;;;;;;;10.87;2.80;;;;;;;4.07;89.88;101458.34;4990516;28;20275;-74
2022/02/05 08:44:55;;;;;;;13.03;3.00;;;;;;;4.25;90.28;101454.28;4990430;28;20271;-74
2022/02/05 08:47:21;;;;;;;16.43;3.07;;;;;;;4.47;89.14;101464.78;4990392;28;20203;-74
2022/02/05 08:49:46;;;;;;;20.53;3.60;;;;;;;4.40;89.09;101460.19;4991274;28;20222;-75
2022/02/05 08:52:12;;;;;;;13.33;3.47;;;;;;;4.61;88.78;101462.19;4974359;28;20196;-75
2022/02/05 08:54:39;;;;;;;15.37;3.20;;;;;;;4.51;87.62;101457.41;4991374;28;20195;-73
2022/02/05 08:57:08;;;;;;;18.90;3.63;;;;;;;4.90;87.84;101444.28;4992314;28;20596;-78
2022/02/05 08:59:47;;;;;;;22.30;3.60;;;;;;;4.93;86.60;101453.72;4990436;28;20199;-73
2022/02/05 09:03:03;;;;;;;14.30;2.97;;;;;;;4.94;86.38;101442.78;4991227;28;20184;-73
2022/02/05 09:07:24;;;;;;;9.53;2.60;;;;;;;5.38;84.40;101439.13;4984755;28;20238;-73
2022/02/05 09:10:04;;;;;;;12.40;2.80;;;;;;;6.33;80.25;101443.75;5005714;28;20223;-74
2022/02/05 09:14:56;;;;;;;10.07;2.70;;;;;;;10.75;60.97;101411.88;4990646;28;20192;-74
2022/02/05 09:17:21;;;;;;;8.47;2.33;;;;;;;10.89;60.89;101404.56;4989657;28;20190;-74
2022/02/05 09:19:47;;;;;;;11.93;2.93;;;;;;;12.45;56.28;101404.09;4990482;28;20656;-74
2022/02/05 09:22:12;;;;;;;13.00;2.63;;;;;;;14.05;52.10;101404.41;4989616;28;20577;-75
2022/02/05 09:24:38;;;;;;;9.67;2.50;;;;;;;13.54;51.93;101409.63;4989962;28;20642;-74
2022/02/05 09:27:07;;;;;;;11.10;2.60;;;;;;;14.27;49.32;101404.75;4990893;28;20621;-75
2022/02/05 09:29:39;;;;;;;17.33;3.63;;;;;;;13.39;52.33;101417.09;4990327;28;20256;-74
2022/02/05 09:32:05;;;;;;;12.93;3.57;;;;;;;13.92;51.56;101411.09;4991958;28;20369;-77
2022/02/05 09:34:31;;;;;;;7.83;3.03;;;;;;;13.13;52.22;101422.63;4991662;28;20234;-74
2022/02/05 09:36:58;;;;;;;10.90;2.77;;;;;;;13.53;50.86;101415.59;4990950;28;20255;-74
2022/02/05 09:39:23;;;;;;;13.43;3.00;;;;;;;12.19;53.81;101428.38;4990457;28;20187;-75
2022/02/05 09:41:49;;;;;;;10.80;2.83;;;;;;;11.64;55.76;101439.88;4990469;28;20238;-74
2022/02/05 09:44:14;;;;;;;13.27;2.87;;;;;;;13.33;52.43;101418.69;4989082;28;20267;-74
2022/02/05 09:46:39;;;;;;;8.27;2.57;;;;;;;11.67;55.33;101428.03;4990500;28;20192;-74
2022/02/05 09:49:05;;;;;;;13.00;3.10;;;;;;;11.47;57.05;101444.56;4988479;28;20187;-74
2022/02/05 09:51:37;;;;;;;7.80;2.70;;;;;;;10.73;58.96;101443.41;4990194;28;20216;-73
2022/02/05 09:54:04;;;;;;;10.20;2.77;;;;;;;9.07;64.42;101455.06;4989032;28;20203;-74
2022/02/05 09:56:38;;;;;;;13.40;3.53;;;;;;;9.46;64.74;101451.34;4990320;28;20196;-73
2022/02/05 09:59:04;;;;;;;9.33;2.37;;;;;;;10.88;59.67;101446.38;4990015;28;20187;-73
2022/02/05 10:01:35;;;;;;;10.77;2.53;;;;;;;10.70;59.21;101444.16;4990074;28;20226;-74
2022/02/05 10:04:09;;;;;;;11.93;2.97;;;;;;;13.11;53.24;101437.16;4988571;28;20219;-74
2022/02/05 10:06:40;;;;;;;12.60;3.07;;;;;;;11.78;54.77;101453.91;4987452;28;20191;-74
2022/02/05 10:09:14;;;;;;;12.60;3.30;;;;;;;14.87;49.10;101436.44;4989542;28;20214;-73
2022/02/05 10:12:02;;;;;;;16.10;3.03;;;;;;;15.64;46.47;101438.13;5006705;28;20214;-73
2022/02/05 10:14:29;;;;;;;9.53;3.03;;;;;;;14.01;48.05;101460.16;4988972;28;20203;-74
2022/02/05 10:16:57;;;;;;;10.73;2.77;;;;;;;16.11;45.33;101441.94;4989461;28;20187;-74
2022/02/05 10:19:24;;;;;;;10.70;3.27;;;;;;;15.74;44.71;101452.00;4989323;28;20211;-74
2022/02/05 10:22:05;;;;;;;8.23;2.97;;;;;;;10.81;57.21;101470.97;4989691;28;20249;-73
2022/02/05 10:24:31;;;;;;;10.53;3.10;;;;;;;10.13;60.79;101478.28;4988690;28;20192;-74
2022/02/05 10:26:57;;;;;;;12.40;3.10;;;;;;;9.32;64.33;101477.22;4989963;28;20554;-73
2022/02/05 10:29:22;;;;;;;10.37;2.83;;;;;;;8.80;64.95;101478.75;4989331;28;20200;-73
2022/02/05 10:32:22;;;;;;;11.63;3.20;;;;;;;9.35;64.62;101470.53;4989722;28;20262;-74
2022/02/05 10:35:15;;;;;;;10.93;3.20;;;;;;;12.06;56.48;101464.00;4990057;28;20188;-74
2022/02/05 10:37:51;;;;;;;13.43;3.40;;;;;;;12.06;54.62;101481.97;4993551;28;20198;-73
2022/02/05 10:40:22;;;;;;;13.40;3.47;;;;;;;10.82;59.02;101484.63;4993828;28;20211;-73
2022/02/05 10:43:03;;;;;;;13.40;3.93;;;;;;;10.56;58.57;101480.44;4993840;28;20306;-73
2022/02/05 10:45:49;;;;;;;13.03;3.23;;;;;;;10.62;59.82;101481.50;4994046;28;20223;-72
2022/02/05 10:48:19;;;;;;;17.67;3.93;;;;;;;11.62;58.33;101465.47;4993679;28;20197;-73
2022/02/05 10:50:46;;;;;;;14.17;3.73;;;;;;;8.92;65.23;101480.06;4993998;28;20258;-74
2022/02/05 10:56:01;;;;;;;14.17;3.33;;;;;;;14.05;51.46;101450.78;4993754;28;20199;-74
2022/02/05 10:59:37;;;;;;;11.87;3.30;;;;;;;12.07;54.79;101460.63;4993442;28;20194;-75
2022/02/05 11:07:16;;;;;;;12.50;3.40;;;;;;;10.61;60.39;101468.66;4993448;28;20270;-74
2022/02/05 11:09:47;;;;;;;13.70;3.73;;;;;;;11.22;59.61;101472.97;5008015;28;20299;-74
2022/02/05 11:18:30;;;;;;;15.50;3.53;;;;;;;11.46;57.62;101463.34;4993328;28;20183;-74
2022/02/05 11:20:53;;;;;;;13.37;3.40;;;;;;;12.01;55.52;101451.06;4993063;28;20215;-74
2022/02/05 11:23:19;;;;;;;14.63;3.50;;;;;;;12.52;54.46;101459.03;4992901;28;20183;-74
2022/02/05 11:25:47;;;;;;;10.73;3.30;;;;;;;11.14;57.00;101464.19;4993111;28;20198;-73
2022/02/05 11:28:13;;;;;;;10.00;3.57;;;;;;;10.90;57.18;101458.41;4991115;28;20202;-74
2022/02/05 11:30:43;;;;;;;12.63;3.83;;;;;;;11.20;57.44;101459.22;4992433;28;20215;-74
2022/02/05 11:33:28;;;;;;;11.93;3.60;;;;;;;9.91;59.34;101468.16;4991970;28;20195;-74
2022/02/05 11:38:29;;;;;;;12.33;2.83;;;;;;;13.79;47.71;101452.06;4989347;28;20196;-76
2022/02/05 11:40:55;;;;;;;10.47;3.77;;;;;;;15.27;44.45;101437.72;4993864;28;20797;-74
2022/02/05 11:43:37;;;;;;;9.83;2.87;;;;;;;10.74;54.82;101465.63;4992446;28;20223;-74
2022/02/05 11:46:08;;;;;;;16.03;3.93;;;;;;;9.95;57.91;101477.66;4992924;28;20195;-74
2022/02/05 11:48:44;;;;;;;19.30;4.10;;;;;;;9.80;60.27;101468.63;4989395;28;20253;-74
2022/02/05 11:51:30;;;;;;;13.80;3.63;;;;;;;8.81;62.59;101476.25;4988625;28;20215;-74
2022/02/05 11:53:55;;;;;;;14.23;3.53;;;;;;;8.78;62.40;101494.03;4992879;28;20191;-74
2022/02/05 11:56:21;;;;;;;14.50;3.47;;;;;;;9.23;62.33;101479.47;4992731;28;20200;-74
2022/02/05 11:58:58;;;;;;;13.40;3.60;;;;;;;10.03;60.23;101485.56;4992504;28;20184;-74
2022/02/05 12:01:38;;;;;;;10.97;3.13;;;;;;;10.47;56.80;101482.75;4990304;28;20230;-74
2022/02/05 12:04:15;;;;;;;10.70;3.10;;;;;;;9.92;60.81;101475.03;4986318;28;20238;-74
2022/02/05 12:07:06;;;;;;;12.63;3.60;;;;;;;10.65;58.40;101458.53;5007784;28;20199;-74
2022/02/05 12:09:40;;;;;;;17.37;3.70;;;;;;;9.76;60.59;101460.00;5007315;28;20231;-74
2022/02/05 12:12:24;;;;;;;15.60;4.23;;;;;;;9.73;61.43;101464.16;4992546;28;20299;-74
2022/02/05 12:15:08;;;;;;;12.93;3.63;;;;;;;8.95;63.51;101471.66;4989991;28;20195;-74
2022/02/05 12:20:51;;;;;;;10.67;3.60;;;;;;;15.30;46.39;101436.06;4976265;28;20231;-74
2022/02/05 12:25:56;;;;;;;10.83;3.83;;;;;;;12.52;49.56;101446.19;4991999;28;20203;-74
2022/02/05 12:28:36;;;;;;;10.83;3.00;;;;;;;10.79;54.32;101446.13;4991915;28;20657;-74
2022/02/05 12:31:25;;;;;;;8.87;3.30;;;;;;;13.40;50.17;101429.09;4992093;28;20226;-74
2022/02/05 12:33:59;;;;;;;10.30;3.60;;;;;;;10.55;55.46;101456.53;4991515;28;20211;-74
2022/02/05 12:36:30;;;;;;;9.50;3.83;;;;;;;11.62;52.06;101447.53;4991983;28;20215;-74
2022/02/05 12:38:57;;;;;;;12.17;3.70;;;;;;;14.23;48.29;101422.75;4991746;28;20196;-74
2022/02/05 12:41:24;;;;;;;14.30;3.17;;;;;;;13.98;48.43;101418.91;4990615;28;20222;-74
2022/02/05 12:43:57;;;;;;;9.43;2.93;;;;;;;10.56;56.02;101429.25;5006731;28;20207;-74
2022/02/05 12:46:29;;;;;;;11.83;3.60;;;;;;;9.25;60.31;101437.81;4991890;28;20187;-74
2022/02/05 12:49:00;;;;;;;8.60;3.03;;;;;;;8.70;64.31;101452.00;4991631;28;20266;-74
2022/02/05 12:51:27;;;;;;;9.43;3.07;;;;;;;8.29;65.41;101462.38;4991708;28;20678;-74
2022/02/05 12:54:03;;;;;;;10.80;3.20;;;;;;;7.76;67.80;101458.50;4991827;28;20247;-74
2022/02/05 12:56:35;;;;;;;8.53;3.10;;;;;;;7.89;70.42;101464.16;4991361;28;20183;-74
2022/02/05 12:59:04;;;;;;;11.07;3.10;;;;;;;7.66;73.02;101464.91;4989623;28;20807;-74
2022/02/05 13:01:31;;;;;;;15.93;3.47;;;;;;;7.50;73.06;101454.00;4990891;28;20235;-74
2022/02/05 13:04:29;;;;;;;13.13;2.77;;;;;;;7.75;72.79;101451.66;4991619;28;20194;-74
2022/02/05 13:07:07;;;;;;;11.63;3.20;;;;;;;7.39;73.64;101451.03;4984623;28;20196;-74
2022/02/05 13:09:37;;;;;;;11.50;3.43;;;;;;;7.24;71.55;101440.19;4991378;28;20237;-74
2022/02/05 13:12:06;;;;;;;11.30;3.37;;;;;;;7.31;72.23;101434.56;4991698;28;20191;-74
2022/02/05 13:14:47;;;;;;;13.13;3.30;;;;;;;7.08;72.70;101431.84;4991369;28;20976;-74
2022/02/05 13:18:07;;;;;;;15.87;3.17;;;;;;;7.05;71.98;101437.66;4989973;28;20281;-74
2022/02/05 13:28:46;;;;;;;14.20;3.27;;;;;;;6.87;71.60;101438.56;4989854;28;20246;-74
2022/02/05 13:34:19;;;;;;;17.80;3.10;;;;;;;6.97;71.98;101431.41;4991215;28;20281;-74
2022/02/05 13:37:10;;;;;;;12.13;2.70;;;;;;;7.13;71.48;101438.88;4990931;28;20184;-74
2022/02/05 13:39:58;;;;;;;13.90;3.10;;;;;;;7.57;70.71;101431.41;4990683;28;20182;-74
2022/02/05 13:42:27;;;;;;;13.30;3.20;;;;;;;8.26;68.28;101436.75;4990895;28;20188;-74
2022/02/05 13:45:10;;;;;;;16.47;2.90;;;;;;;9.76;61.02;101421.63;4990807;28;20676;-74
2022/02/05 13:47:42;;;;;;;11.97;2.77;;;;;;;9.54;61.82;101418.34;4989403;28;20191;-74
2022/02/05 13:50:10;;;;;;;10.27;2.93;;;;;;;11.11;56.08;101417.13;4990223;28;20273;-74
2022/02/05 13:52:48;;;;;;;10.67;2.93;;;;;;;11.16;55.09;101400.16;4990589;28;20191;-74
2022/02/05 13:55:29;;;;;;;9.57;2.73;;;;;;;9.91;55.80;101406.75;5005540;28;20222;-75
2022/02/05 13:58:04;;;;;;;13.27;3.53;;;;;;;8.88;60.73;101411.81;4990542;28;20168;-74
2022/02/05 14:00:52;;;;;;;12.30;3.30;;;;;;;9.39;59.25;101403.38;4990610;28;20246;-74
2022/02/05 14:03:29;;;;;;;8.53;3.03;;;;;;;8.73;60.71;101416.41;4990547;28;20324;-74
2022/02/05 14:06:02;;;;;;;11.83;2.87;;;;;;;8.06;64.41;101417.22;4990534;28;20194;-74
2022/02/05 14:08:30;;;;;;;12.27;3.47;;;;;;;9.58;61.00;101400.59;4990110;28;20278;-74
2022/02/05 14:10:58;;;;;;;12.03;2.70;;;;;;;9.38;60.75;101400.75;4990058;28;20234;-74
2022/02/05 14:13:23;;;;;;;13.70;3.30;;;;;;;9.03;62.61;101404.69;4990449;28;20204;-74
2022/02/05 14:15:56;;;;;;;8.83;3.93;;;;;;;8.53;63.38;101408.84;4988897;28;20203;-74
2022/02/05 14:18:23;;;;;;;11.47;3.27;;;;;;;8.04;66.67;101408.66;4988782;28;20223;-74
2022/02/05 14:21:02;;;;;;;13.00;3.93;;;;;;;7.55;68.06;101409.22;4990101;28;20223;-74